CYP342 LCLK-LIMC
Flight info
| Callsign | CYP342 |
|---|---|
| Flight time | N/A |
| Altitude | 38000 |
| Route | PHA1W PHA M31 GENOS DCT TOSKA UM978 VAXOS DCT LINRO DCT KOPAR DCT RIGRO UN133 GIKAS DCT DISOR DCT LONTA UL608 DOLEV DCT BUNEX DCT NILKU DCT XELMI DCT VRANA DCT SIRMI DCT DIGOT DCT ULPIN DCT VIC L615 PEXUG PEXUG3E |
| Aircraft | A320/M-SDE3FGHIRWY/LB1 |
Departure
| Time | N/A |
|---|---|
| Airport | Larnaca International Airport (LCLK) |
Arrival
| Time | 2026-05-06 19:17 |
|---|---|
| Airport | Milan Malpensa International Airport (LIMC) |
| Time | Latitude | Longitude | Altitude | Speed | Heading |
|---|---|---|---|---|---|
| 2026-05-06 18:53 | 45.64618 | 10.79815 | 37687 ft | 406 kts | 264° |
| 2026-05-06 18:53 | 45.64631 | 10.75781 | 37421 ft | 406 kts | 265° |
| 2026-05-06 18:53 | 45.64654 | 10.71755 | 37154 ft | 405 kts | 265° |
| 2026-05-06 18:53 | 45.64685 | 10.67791 | 36760 ft | 404 kts | 265° |
| 2026-05-06 18:54 | 45.64723 | 10.63767 | 35932 ft | 406 kts | 265° |
| 2026-05-06 18:54 | 45.64759 | 10.59736 | 35118 ft | 406 kts | 264° |
| 2026-05-06 18:54 | 45.64788 | 10.55693 | 34255 ft | 406 kts | 263° |
| 2026-05-06 18:54 | 45.64814 | 10.51695 | 33716 ft | 399 kts | 263° |
| 2026-05-06 18:55 | 45.64837 | 10.47764 | 33107 ft | 393 kts | 263° |
| 2026-05-06 18:55 | 45.64854 | 10.43892 | 32532 ft | 386 kts | 263° |
| 2026-05-06 18:55 | 45.64869 | 10.40085 | 31966 ft | 380 kts | 263° |
| 2026-05-06 18:55 | 45.64880 | 10.36336 | 31427 ft | 375 kts | 263° |
| 2026-05-06 18:56 | 45.64889 | 10.32631 | 30886 ft | 370 kts | 262° |
| 2026-05-06 18:56 | 45.64898 | 10.28972 | 30331 ft | 367 kts | 263° |
| 2026-05-06 18:56 | 45.64908 | 10.25345 | 29786 ft | 363 kts | 263° |
| 2026-05-06 18:56 | 45.64920 | 10.21763 | 29247 ft | 357 kts | 263° |
| 2026-05-06 18:57 | 45.64928 | 10.18238 | 28749 ft | 353 kts | 263° |
| 2026-05-06 18:57 | 45.64932 | 10.14759 | 28271 ft | 347 kts | 263° |
| 2026-05-06 18:57 | 45.64936 | 10.11331 | 27801 ft | 343 kts | 263° |
| 2026-05-06 18:57 | 45.64944 | 10.07936 | 27350 ft | 340 kts | 263° |
| 2026-05-06 18:58 | 45.64959 | 10.04620 | 26925 ft | 336 kts | 263° |
| 2026-05-06 18:58 | 45.64973 | 10.01299 | 26485 ft | 332 kts | 263° |
| 2026-05-06 18:58 | 45.64985 | 9.98017 | 26062 ft | 328 kts | 264° |
| 2026-05-06 18:58 | 45.64997 | 9.94771 | 25637 ft | 325 kts | 264° |
| 2026-05-06 18:59 | 45.65007 | 9.91561 | 25218 ft | 322 kts | 264° |
| 2026-05-06 18:59 | 45.65014 | 9.88381 | 24800 ft | 319 kts | 264° |
| 2026-05-06 18:59 | 45.65019 | 9.85227 | 24380 ft | 316 kts | 264° |
| 2026-05-06 18:59 | 45.65023 | 9.82103 | 23963 ft | 313 kts | 264° |
| 2026-05-06 19:00 | 45.65029 | 9.78990 | 23533 ft | 314 kts | 265° |
| 2026-05-06 19:00 | 45.65042 | 9.75872 | 23049 ft | 314 kts | 265° |
| 2026-05-06 19:00 | 45.65091 | 9.72749 | 22605 ft | 314 kts | 266° |
| 2026-05-06 19:00 | 45.65163 | 9.69636 | 22170 ft | 313 kts | 267° |
| 2026-05-06 19:01 | 45.65238 | 9.66530 | 21740 ft | 312 kts | 267° |
| 2026-05-06 19:01 | 45.65313 | 9.63436 | 21306 ft | 311 kts | 267° |
| 2026-05-06 19:01 | 45.65368 | 9.60341 | 20941 ft | 317 kts | 266° |
| 2026-05-06 19:01 | 45.65380 | 9.57111 | 20881 ft | 329 kts | 265° |
| 2026-05-06 19:02 | 45.65372 | 9.53814 | 21052 ft | 333 kts | 265° |
| 2026-05-06 19:02 | 45.65362 | 9.50497 | 20794 ft | 335 kts | 265° |
| 2026-05-06 19:02 | 45.65353 | 9.47142 | 19566 ft | 342 kts | 266° |
| 2026-05-06 19:02 | 45.65345 | 9.43724 | 18596 ft | 342 kts | 266° |
| 2026-05-06 19:03 | 45.65343 | 9.40417 | 18234 ft | 326 kts | 266° |
| 2026-05-06 19:03 | 45.65343 | 9.37210 | 17829 ft | 318 kts | 266° |
| 2026-05-06 19:03 | 45.65344 | 9.34082 | 17525 ft | 312 kts | 266° |
| 2026-05-06 19:03 | 45.65311 | 9.31000 | 17003 ft | 310 kts | 259° |
| 2026-05-06 19:04 | 45.64697 | 9.28116 | 16312 ft | 299 kts | 239° |
| 2026-05-06 19:04 | 45.63455 | 9.25794 | 15608 ft | 293 kts | 223° |
| 2026-05-06 19:04 | 45.61958 | 9.23827 | 14868 ft | 292 kts | 222° |
| 2026-05-06 19:04 | 45.60459 | 9.21886 | 14176 ft | 290 kts | 221° |
| 2026-05-06 19:05 | 45.58979 | 9.19974 | 13461 ft | 288 kts | 222° |
| 2026-05-06 19:05 | 45.57508 | 9.18073 | 12724 ft | 285 kts | 222° |
| 2026-05-06 19:05 | 45.56047 | 9.16182 | 11996 ft | 282 kts | 222° |
| 2026-05-06 19:05 | 45.54601 | 9.14308 | 11279 ft | 279 kts | 222° |
| 2026-05-06 19:06 | 45.53169 | 9.12450 | 10580 ft | 277 kts | 222° |
| 2026-05-06 19:06 | 45.51751 | 9.10611 | 9890 ft | 274 kts | 222° |
| 2026-05-06 19:06 | 45.50350 | 9.08798 | 9261 ft | 268 kts | 222° |
| 2026-05-06 19:06 | 45.49028 | 9.07084 | 9113 ft | 246 kts | 222° |
| 2026-05-06 19:07 | 45.47803 | 9.05493 | 8946 ft | 235 kts | 222° |
| 2026-05-06 19:07 | 45.46616 | 9.03956 | 8891 ft | 233 kts | 222° |
| 2026-05-06 19:07 | 45.45414 | 9.02404 | 8897 ft | 233 kts | 221° |
| 2026-05-06 19:07 | 45.44202 | 9.00843 | 8604 ft | 239 kts | 221° |
| 2026-05-06 19:08 | 45.42974 | 8.99262 | 8271 ft | 233 kts | 221° |
| 2026-05-06 19:08 | 45.41790 | 8.97737 | 7761 ft | 227 kts | 221° |
| 2026-05-06 19:08 | 45.40631 | 8.96240 | 7245 ft | 223 kts | 221° |
| 2026-05-06 19:08 | 45.39356 | 8.95024 | 6704 ft | 220 kts | 204° |
| 2026-05-06 19:09 | 45.37896 | 8.94462 | 6165 ft | 218 kts | 186° |
| 2026-05-06 19:09 | 45.36402 | 8.94590 | 5918 ft | 217 kts | 173° |
| 2026-05-06 19:09 | 45.34907 | 8.94589 | 5779 ft | 215 kts | 200° |
| 2026-05-06 19:09 | 45.33674 | 8.93398 | 5653 ft | 219 kts | 228° |
| 2026-05-06 19:10 | 45.33016 | 8.91433 | 5534 ft | 227 kts | 258° |
| 2026-05-06 19:10 | 45.33161 | 8.89168 | 5402 ft | 238 kts | 289° |
| 2026-05-06 19:10 | 45.33991 | 8.87126 | 5284 ft | 236 kts | 298° |
| 2026-05-06 19:10 | 45.34826 | 8.85180 | 5155 ft | 225 kts | 297° |
| 2026-05-06 19:11 | 45.35612 | 8.83300 | 5033 ft | 219 kts | 297° |
| 2026-05-06 19:11 | 45.36413 | 8.81456 | 4829 ft | 220 kts | 306° |
| 2026-05-06 19:11 | 45.37604 | 8.80095 | 4575 ft | 223 kts | 333° |
| 2026-05-06 19:11 | 45.39113 | 8.79565 | 4319 ft | 225 kts | 351° |
| 2026-05-06 19:12 | 45.40663 | 8.79268 | 4094 ft | 222 kts | 351° |
| 2026-05-06 19:12 | 45.42142 | 8.78982 | 4020 ft | 211 kts | 351° |
| 2026-05-06 19:12 | 45.43588 | 8.78685 | 4008 ft | 206 kts | 349° |
| 2026-05-06 19:12 | 45.44961 | 8.78324 | 3957 ft | 202 kts | 348° |
| 2026-05-06 19:13 | 45.46329 | 8.77947 | 3759 ft | 200 kts | 348° |
| 2026-05-06 19:13 | 45.47692 | 8.77572 | 3502 ft | 200 kts | 349° |
| 2026-05-06 19:13 | 45.49060 | 8.77196 | 3242 ft | 201 kts | 349° |
| 2026-05-06 19:13 | 45.50413 | 8.76824 | 2995 ft | 192 kts | 349° |
| 2026-05-06 19:14 | 45.51688 | 8.76474 | 2723 ft | 182 kts | 349° |
| 2026-05-06 19:14 | 45.52894 | 8.76142 | 2465 ft | 171 kts | 350° |
| 2026-05-06 19:14 | 45.54003 | 8.75836 | 2264 ft | 154 kts | 351° |
| 2026-05-06 19:14 | 45.55009 | 8.75559 | 2067 ft | 142 kts | 350° |
| 2026-05-06 19:15 | 45.55962 | 8.75297 | 1880 ft | 138 kts | 350° |
| 2026-05-06 19:15 | 45.56889 | 8.75041 | 1688 ft | 134 kts | 351° |
| 2026-05-06 19:15 | 45.57804 | 8.74789 | 1487 ft | 134 kts | 351° |
| 2026-05-06 19:15 | 45.58707 | 8.74541 | 1315 ft | 131 kts | 351° |
| 2026-05-06 19:16 | 45.59607 | 8.74300 | 1141 ft | 132 kts | 348° |
| 2026-05-06 19:16 | 45.60509 | 8.74060 | 980 ft | 131 kts | 351° |
| 2026-05-06 19:16 | 45.61405 | 8.73799 | 812 ft | 132 kts | 349° |
| 2026-05-06 19:16 | 45.62276 | 8.73553 | 742 ft | 115 kts | 348° |
| 2026-05-06 19:17 | 45.62905 | 8.73381 | 739 ft | 67 kts | 349° |
| 2026-05-06 19:17 | 45.63269 | 8.73285 | 739 ft | 48 kts | 349° |
| 2026-05-06 19:17 | 45.63569 | 8.73189 | 742 ft | 41 kts | 341° |
| 2026-05-06 19:17 | 45.63734 | 8.73047 | 742 ft | 15 kts | 319° |
| 2026-05-06 19:18 | 45.63803 | 8.72939 | 741 ft | 11 kts | 304° |
| 2026-05-06 19:18 | 45.63845 | 8.72853 | 739 ft | 10 kts | 304° |
| 2026-05-06 19:18 | 45.63873 | 8.72793 | 740 ft | 6 kts | 304° |
| 2026-05-06 19:18 | 45.63896 | 8.72744 | 741 ft | 6 kts | 304° |
| 2026-05-06 19:19 | 45.63909 | 8.72717 | 741 ft | 0 kts | 304° |
| 2026-05-06 19:19 | 45.63921 | 8.72693 | 740 ft | 7 kts | 304° |
| 2026-05-06 19:19 | 45.63955 | 8.72601 | 739 ft | 14 kts | 287° |
| 2026-05-06 19:20 | 45.63941 | 8.72449 | 741 ft | 15 kts | 259° |
| 2026-05-06 19:20 | 45.63922 | 8.72305 | 741 ft | 14 kts | 259° |
| 2026-05-06 19:20 | 45.63916 | 8.72170 | 740 ft | 13 kts | 268° |
| 2026-05-06 19:20 | 45.63912 | 8.72042 | 740 ft | 12 kts | 267° |
| 2026-05-06 19:21 | 45.63904 | 8.71963 | 740 ft | 6 kts | 261° |
| 2026-05-06 19:21 | 45.63898 | 8.71912 | 741 ft | 5 kts | 258° |
| 2026-05-06 19:21 | 45.63881 | 8.71866 | 740 ft | 8 kts | 234° |
| 2026-05-06 19:21 | 45.63818 | 8.71819 | 741 ft | 13 kts | 178° |
| 2026-05-06 19:22 | 45.63736 | 8.71842 | 740 ft | 12 kts | 169° |
| 2026-05-06 19:22 | 45.63661 | 8.71862 | 741 ft | 10 kts | 169° |
| 2026-05-06 19:22 | 45.63610 | 8.71876 | 740 ft | 7 kts | 169° |
| 2026-05-06 19:22 | 45.63568 | 8.71888 | 741 ft | 4 kts | 168° |
| 2026-05-06 19:23 | 45.63539 | 8.71896 | 741 ft | 4 kts | 168° |
| 2026-05-06 19:23 | 45.63513 | 8.71904 | 739 ft | 4 kts | 168° |
| 2026-05-06 19:23 | 45.63488 | 8.71911 | 741 ft | 3 kts | 168° |
| 2026-05-06 19:23 | 45.63465 | 8.71918 | 741 ft | 3 kts | 168° |
| 2026-05-06 19:24 | 45.63444 | 8.71924 | 741 ft | 3 kts | 169° |
| 2026-05-06 19:24 | 45.63425 | 8.71929 | 739 ft | 3 kts | 170° |
| 2026-05-06 19:24 | 45.63421 | 8.71929 | 740 ft | 0 kts | 170° |
| 2026-05-06 19:25 | 45.63420 | 8.71930 | 741 ft | 2 kts | 170° |
| 2026-05-06 19:25 | 45.63403 | 8.71934 | 741 ft | 2 kts | 170° |
| 2026-05-06 19:26 | 45.63388 | 8.71938 | 741 ft | 2 kts | 170° |
| 2026-05-06 19:26 | 45.63376 | 8.71941 | 740 ft | 2 kts | 170° |
| 2026-05-06 19:26 | 45.63365 | 8.71944 | 741 ft | 1 kts | 170° |
| 2026-05-06 19:26 | 45.63345 | 8.71949 | 741 ft | 8 kts | 170° |
| 2026-05-06 19:27 | 45.63259 | 8.71972 | 741 ft | 15 kts | 169° |
| 2026-05-06 19:27 | 45.63154 | 8.72001 | 741 ft | 16 kts | 168° |
| 2026-05-06 19:27 | 45.63044 | 8.72032 | 741 ft | 17 kts | 169° |
| 2026-05-06 19:27 | 45.62925 | 8.72066 | 741 ft | 19 kts | 168° |
| 2026-05-06 19:28 | 45.62790 | 8.72102 | 741 ft | 19 kts | 169° |
| 2026-05-06 19:28 | 45.62701 | 8.72103 | 741 ft | 10 kts | 208° |
| 2026-05-06 19:28 | 45.62676 | 8.72021 | 741 ft | 9 kts | 259° |
| 2026-05-06 19:28 | 45.62664 | 8.71939 | 741 ft | 8 kts | 260° |
| 2026-05-06 19:29 | 45.62654 | 8.71858 | 740 ft | 9 kts | 259° |
| 2026-05-06 19:29 | 45.62643 | 8.71772 | 741 ft | 9 kts | 259° |
| 2026-05-06 19:29 | 45.62630 | 8.71679 | 741 ft | 11 kts | 259° |
| 2026-05-06 19:29 | 45.62616 | 8.71577 | 741 ft | 10 kts | 259° |
| 2026-05-06 19:30 | 45.62623 | 8.71492 | 741 ft | 8 kts | 314° |
| 2026-05-06 19:30 | 45.62669 | 8.71484 | 741 ft | 3 kts | 10° |
| 2026-05-06 19:30 | 45.62687 | 8.71490 | 741 ft | 2 kts | 12° |
| 2026-05-06 19:30 | 45.62688 | 8.71490 | 741 ft | 0 kts | 12° |